Time;durP1;ratioP1;P1;durP2;ratioP2;P2;SDS_P1;SDS_P2;PMS_P1;PMS_P2;Temp;Humidity;BMP_temperature;BMP_pressure;BME280_temperature;BME280_humidity;BME280_pressure;Samples;Min_cycle;Max_cycle;Signal;HPM_P1;HPM_P2
2021/01/25 00:01:44;;;;;;;25.70;20.95;;;;;;;2.53;74.81;98560.28;125645;1127;22914;-78
2021/01/25 00:04:12;;;;;;;25.77;20.68;;;;;;;2.55;74.31;98560.95;125582;1124;22538;-78
2021/01/25 00:06:40;;;;;;;23.13;19.57;;;;;;;2.55;74.52;98563.56;125502;1126;22427;-79
2021/01/25 00:09:08;;;;;;;26.12;20.65;;;;;;;2.52;74.83;98561.27;125539;1125;22421;-76
2021/01/25 00:11:37;;;;;;;23.80;19.40;;;;;;;2.52;74.13;98566.48;125610;1126;22413;-77
2021/01/25 00:14:05;;;;;;;24.87;21.23;;;;;;;2.51;74.15;98570.07;125423;1126;22480;-76
2021/01/25 00:16:33;;;;;;;24.52;21.87;;;;;;;2.51;74.06;98570.07;125606;1124;22404;-76
2021/01/25 00:19:01;;;;;;;25.97;20.95;;;;;;;2.48;73.75;98570.39;125630;1124;25140;-77
2021/01/25 00:21:29;;;;;;;23.27;20.77;;;;;;;2.45;74.54;98571.52;125466;1124;22417;-77
2021/01/25 00:23:58;;;;;;;24.87;20.50;;;;;;;2.45;74.45;98570.70;125495;1124;25007;-77
2021/01/25 00:26:26;;;;;;;24.95;21.00;;;;;;;2.45;74.43;98578.52;125515;1124;22484;-77
2021/01/25 00:28:54;;;;;;;26.87;22.48;;;;;;;2.46;74.64;98586.17;125548;1124;24351;-77
2021/01/25 00:31:22;;;;;;;26.45;21.95;;;;;;;2.45;74.75;98583.73;125517;1127;22434;-77
2021/01/25 00:33:50;;;;;;;27.75;22.62;;;;;;;2.44;73.92;98587.33;125407;1124;22440;-76
2021/01/25 00:36:19;;;;;;;26.62;21.62;;;;;;;2.43;74.77;98586.48;125597;1126;22417;-76
2021/01/25 00:38:47;;;;;;;27.60;23.47;;;;;;;2.45;74.54;98586.34;125542;1124;22525;-76
2021/01/25 00:41:16;;;;;;;33.20;24.92;;;;;;;2.48;74.75;98586.03;125480;1126;22783;-76
2021/01/25 00:43:45;;;;;;;32.38;23.92;;;;;;;2.50;74.28;98589.27;125439;1126;24533;-76
2021/01/25 00:46:14;;;;;;;27.82;22.95;;;;;;;2.50;73.81;98590.11;125638;1127;22418;-76
2021/01/25 00:48:42;;;;;;;27.60;22.82;;;;;;;2.49;74.07;98590.25;125489;1127;22429;-76
2021/01/25 00:51:10;;;;;;;32.40;26.42;;;;;;;2.49;73.91;98592.86;125646;1124;22420;-75
2021/01/25 00:53:39;;;;;;;32.00;26.27;;;;;;;2.44;73.71;98585.53;125581;1125;22424;-75
2021/01/25 00:56:07;;;;;;;35.45;28.65;;;;;;;2.41;73.80;98595.45;125640;1126;22487;-77
2021/01/25 00:58:35;;;;;;;33.53;27.82;;;;;;;2.39;74.44;98594.79;125656;1124;22431;-76
2021/01/25 01:01:04;;;;;;;34.70;29.05;;;;;;;2.38;74.88;98600.98;125620;1127;22424;-77
2021/01/25 01:03:33;;;;;;;38.13;31.77;;;;;;;2.36;74.80;98601.94;125499;1126;22876;-77
2021/01/25 01:06:02;;;;;;;34.13;29.82;;;;;;;2.34;74.93;98611.72;125558;1126;22483;-76
2021/01/25 01:08:30;;;;;;;36.20;32.10;;;;;;;2.33;74.12;98612.70;125439;1126;22434;-76
2021/01/25 01:11:01;;;;;;;38.60;33.53;;;;;;;2.32;74.29;98618.06;125477;1124;24565;-77
2021/01/25 01:13:29;;;;;;;38.73;33.15;;;;;;;2.32;75.05;98621.48;125632;1126;23201;-77
2021/01/25 01:15:57;;;;;;;42.27;35.05;;;;;;;2.35;75.13;98628.17;125600;1125;22482;-77
2021/01/25 01:18:25;;;;;;;38.23;33.48;;;;;;;2.37;74.18;98628.84;125549;1124;22417;-77
2021/01/25 01:20:53;;;;;;;38.00;32.17;;;;;;;2.38;74.99;98625.25;125582;1124;22524;-77
2021/01/25 01:23:21;;;;;;;35.03;31.25;;;;;;;2.36;74.48;98630.60;125609;1124;22519;-77
2021/01/25 01:25:49;;;;;;;34.65;29.87;;;;;;;2.36;74.78;98616.77;125476;1127;22440;-77
2021/01/25 01:28:17;;;;;;;37.38;31.40;;;;;;;2.36;74.91;98619.38;125483;1124;22522;-77
2021/01/25 01:30:45;;;;;;;32.80;28.73;;;;;;;2.36;74.66;98614.97;125489;1124;22440;-77
2021/01/25 01:33:13;;;;;;;31.33;27.40;;;;;;;2.36;74.68;98627.19;125524;1127;22443;-77
2021/01/25 01:35:42;;;;;;;28.98;25.95;;;;;;;2.33;74.11;98625.73;125531;1126;22473;-77
2021/01/25 01:38:10;;;;;;;28.60;25.57;;;;;;;2.34;73.77;98632.57;125566;1126;22532;-77
2021/01/25 01:40:38;;;;;;;30.72;27.27;;;;;;;2.31;74.22;98634.67;125435;1127;22690;-77
2021/01/25 01:43:06;;;;;;;29.90;26.57;;;;;;;2.31;74.02;98635.48;125554;1126;22440;-77
2021/01/25 01:45:34;;;;;;;26.68;22.98;;;;;;;2.30;74.45;98641.68;125535;1126;22414;-76
2021/01/25 01:48:02;;;;;;;26.02;23.20;;;;;;;2.29;74.29;98634.81;125542;1124;24284;-76
2021/01/25 01:50:31;;;;;;;22.52;19.55;;;;;;;2.27;73.71;98647.20;125599;1124;24022;-76
2021/01/25 01:52:59;;;;;;;21.07;18.77;;;;;;;2.24;73.45;98644.91;125389;1127;22443;-76
2021/01/25 01:55:27;;;;;;;21.23;18.17;;;;;;;2.21;73.26;98639.20;125613;1126;22811;-77
2021/01/25 01:57:56;;;;;;;21.48;16.77;;;;;;;2.15;73.99;98642.42;125595;1126;22424;-78
2021/01/25 02:00:24;;;;;;;19.95;17.77;;;;;;;2.12;74.05;98641.75;125636;1124;24559;-77
2021/01/25 02:02:53;;;;;;;22.15;19.25;;;;;;;2.11;73.72;98637.52;125625;1124;22427;-77
2021/01/25 02:05:22;;;;;;;21.73;19.45;;;;;;;2.12;73.83;98644.35;125551;1127;23378;-77
2021/01/25 02:07:53;;;;;;;23.52;20.05;;;;;;;2.10;72.95;98648.11;125577;1128;22620;-76
2021/01/25 02:10:22;;;;;;;21.02;18.60;;;;;;;2.08;72.70;98647.44;125558;1124;24294;-76
2021/01/25 02:12:58;;;;;;;23.07;20.10;;;;;;;2.05;72.84;98650.34;125634;1124;25005;-76
2021/01/25 02:15:27;;;;;;;23.75;19.87;;;;;;;2.03;73.34;98655.72;125529;1127;22578;-76
2021/01/25 02:17:56;;;;;;;24.18;20.75;;;;;;;2.02;72.58;98648.05;125681;1124;22490;-76
2021/01/25 02:20:34;;;;;;;22.10;19.65;;;;;;;2.02;73.10;98656.67;125436;1126;22434;-76
2021/01/25 02:23:26;;;;;;;22.10;19.05;;;;;;;2.01;72.63;98649.03;125624;1124;22519;-76
2021/01/25 02:26:31;;;;;;;24.87;20.63;;;;;;;2.03;73.47;98649.67;125591;1124;25711;-76
2021/01/25 02:28:59;;;;;;;25.32;22.25;;;;;;;2.03;73.21;98657.48;125578;1124;22420;-76
2021/01/25 02:31:31;;;;;;;26.17;22.37;;;;;;;2.05;72.87;98652.95;125579;1126;22420;-77
2021/01/25 02:34:00;;;;;;;23.87;21.40;;;;;;;2.07;72.75;98653.63;125662;1124;22417;-78
2021/01/25 02:36:30;;;;;;;22.95;20.45;;;;;;;2.08;73.08;98658.66;125552;1125;22425;-77
2021/01/25 02:39:01;;;;;;;20.20;18.00;;;;;;;2.07;72.49;98651.83;125582;1124;22418;-77
2021/01/25 02:41:31;;;;;;;22.67;18.67;;;;;;;2.05;73.10;98664.18;125555;1124;24435;-77
2021/01/25 02:44:02;;;;;;;21.07;18.87;;;;;;;2.03;72.70;98671.34;125604;1127;22500;-77
2021/01/25 02:46:31;;;;;;;23.23;20.53;;;;;;;2.00;72.48;98671.66;125712;1124;22428;-77
2021/01/25 02:49:00;;;;;;;24.57;20.23;;;;;;;2.00;72.60;98676.02;125449;1125;22519;-77
2021/01/25 02:51:28;;;;;;;23.52;21.15;;;;;;;2.01;72.57;98669.86;125651;1124;22462;-78
2021/01/25 02:53:57;;;;;;;24.07;21.55;;;;;;;2.04;73.08;98675.58;125631;1126;22423;-77
2021/01/25 02:56:25;;;;;;;23.42;20.80;;;;;;;2.06;73.35;98678.02;125607;1124;24441;-77
2021/01/25 02:58:53;;;;;;;23.38;20.88;;;;;;;2.08;73.10;98674.30;125683;1124;22412;-77
2021/01/25 03:01:22;;;;;;;24.63;21.25;;;;;;;2.09;72.73;98677.70;125648;1124;24629;-76
2021/01/25 03:03:52;;;;;;;21.90;19.50;;;;;;;2.10;72.43;98676.77;125452;1126;22425;-75
2021/01/25 03:06:21;;;;;;;21.65;18.92;;;;;;;2.12;72.96;98682.61;125462;1124;22417;-77
2021/01/25 03:08:49;;;;;;;20.80;18.60;;;;;;;2.11;73.41;98683.59;125630;1127;22436;-75
2021/01/25 03:11:19;;;;;;;23.73;19.23;;;;;;;2.09;72.53;98681.13;125610;1124;22431;-75
2021/01/25 03:13:47;;;;;;;21.00;18.80;;;;;;;2.08;73.30;98679.50;125547;1125;22421;-75
2021/01/25 03:16:17;;;;;;;21.93;19.35;;;;;;;2.07;73.17;98684.88;125510;1127;22445;-76
2021/01/25 03:18:45;;;;;;;22.98;20.00;;;;;;;2.04;73.17;98682.58;125548;1126;22446;-76
2021/01/25 03:21:13;;;;;;;23.40;20.32;;;;;;;2.00;72.76;98687.28;125598;1124;24541;-77
2021/01/25 03:23:41;;;;;;;23.98;21.30;;;;;;;1.97;73.38;98690.19;125545;1127;22466;-76
2021/01/25 03:26:09;;;;;;;22.22;19.82;;;;;;;1.98;73.66;98691.81;125477;1124;22466;-77
2021/01/25 03:28:38;;;;;;;25.48;20.62;;;;;;;1.98;73.67;98693.61;125505;1124;24351;-76
2021/01/25 03:31:06;;;;;;;25.65;20.95;;;;;;;1.98;72.96;98701.42;125514;1128;22510;-75
2021/01/25 03:33:35;;;;;;;24.20;21.07;;;;;;;1.98;73.25;98702.23;125377;1127;22439;-76
2021/01/25 03:36:03;;;;;;;22.77;20.37;;;;;;;2.00;73.87;98708.12;125529;1126;22519;-78
2021/01/25 03:38:31;;;;;;;23.63;20.90;;;;;;;2.01;73.70;98707.14;125557;1128;22434;-76
2021/01/25 03:40:59;;;;;;;25.15;22.25;;;;;;;2.02;73.06;98715.77;125509;1124;22415;-75
2021/01/25 03:43:28;;;;;;;25.55;20.57;;;;;;;2.00;73.90;98720.30;125455;1126;22417;-75
2021/01/25 03:45:56;;;;;;;22.98;20.27;;;;;;;1.99;73.99;98718.67;125640;1127;23352;-75
2021/01/25 03:48:24;;;;;;;23.27;18.90;;;;;;;1.94;73.29;98715.73;125539;1124;22435;-75
2021/01/25 03:50:52;;;;;;;21.77;16.37;;;;;;;1.87;73.24;98720.72;125512;1126;22417;-75
2021/01/25 03:53:21;;;;;;;23.12;18.67;;;;;;;1.83;73.96;98719.38;125528;1124;22435;-75
2021/01/25 03:55:49;;;;;;;22.98;19.07;;;;;;;1.82;74.33;98715.95;125498;1124;24629;-76
2021/01/25 03:58:17;;;;;;;22.90;18.02;;;;;;;1.85;74.02;98723.46;125541;1125;22481;-75
2021/01/25 04:00:45;;;;;;;23.22;17.65;;;;;;;1.88;74.22;98724.95;125565;1126;22433;-76
2021/01/25 04:03:13;;;;;;;24.43;19.12;;;;;;;1.89;74.46;98727.39;125598;1127;22420;-76
2021/01/25 04:05:42;;;;;;;25.20;20.40;;;;;;;1.87;73.51;98731.14;125626;1124;24290;-76
2021/01/25 04:08:10;;;;;;;22.50;18.15;;;;;;;1.87;74.00;98734.56;125642;1124;24361;-76
2021/01/25 04:10:38;;;;;;;22.22;17.55;;;;;;;1.86;73.94;98727.69;125575;1124;24552;-76
2021/01/25 04:13:06;;;;;;;21.37;18.17;;;;;;;1.85;74.06;98730.46;125448;1124;22519;-76
2021/01/25 04:15:34;;;;;;;24.30;20.17;;;;;;;1.83;74.36;98730.63;125575;1124;24348;-76
2021/01/25 04:18:06;;;;;;;22.13;19.32;;;;;;;1.83;73.70;98725.42;125556;1124;24325;-75
2021/01/25 04:20:34;;;;;;;19.17;17.17;;;;;;;1.81;74.40;98736.95;125572;1126;22425;-75
2021/01/25 04:23:02;;;;;;;20.15;17.40;;;;;;;1.79;73.88;98731.88;125443;1124;24383;-77
2021/01/25 04:25:30;;;;;;;20.70;18.35;;;;;;;1.81;74.13;98734.34;125605;1124;22423;-75
2021/01/25 04:28:01;;;;;;;17.80;15.90;;;;;;;1.80;74.55;98748.31;125630;1124;24563;-76
2021/01/25 04:30:30;;;;;;;18.20;16.30;;;;;;;1.76;73.78;98742.59;125413;1124;22418;-76
2021/01/25 04:32:58;;;;;;;17.82;15.93;;;;;;;1.73;74.22;98745.49;125622;1124;22422;-75
2021/01/25 04:35:27;;;;;;;19.32;17.30;;;;;;;1.68;73.74;98750.34;125563;1124;22526;-75
2021/01/25 04:37:55;;;;;;;21.15;18.95;;;;;;;1.69;74.20;98740.75;125409;1124;22483;-75
2021/01/25 04:40:23;;;;;;;21.02;18.77;;;;;;;1.69;74.75;98741.56;125553;1127;22428;-75
2021/01/25 04:42:52;;;;;;;21.93;19.70;;;;;;;1.69;73.98;98743.35;125511;1124;22425;-76
2021/01/25 04:45:20;;;;;;;18.57;16.65;;;;;;;1.68;74.47;98747.75;125515;1126;22519;-75
2021/01/25 04:47:50;;;;;;;19.27;17.30;;;;;;;1.65;73.92;98750.64;125359;1127;22418;-75
2021/01/25 04:50:18;;;;;;;20.65;17.95;;;;;;;1.63;74.23;98750.81;125627;1124;22439;-75
2021/01/25 04:52:48;;;;;;;20.35;18.15;;;;;;;1.64;74.14;98749.02;125609;1127;22430;-76
2021/01/25 04:55:17;;;;;;;19.87;17.77;;;;;;;1.64;74.04;98749.02;125437;1127;22464;-76
2021/01/25 04:57:46;;;;;;;23.35;19.57;;;;;;;1.61;74.36;98744.92;125604;1126;22424;-76
2021/01/25 05:00:19;;;;;;;18.82;16.90;;;;;;;1.61;73.96;98746.71;125533;1124;25115;-76
2021/01/25 05:02:47;;;;;;;19.30;17.02;;;;;;;1.59;74.35;98743.43;125489;1126;22716;-76
2021/01/25 05:05:15;;;;;;;20.48;18.37;;;;;;;1.60;74.97;98747.66;125504;1124;24280;-76
2021/01/25 05:07:43;;;;;;;19.87;17.17;;;;;;;1.60;74.71;98748.50;125575;1129;22876;-76
2021/01/25 05:10:12;;;;;;;19.42;17.40;;;;;;;1.59;74.25;98762.47;125448;1124;22406;-77
2021/01/25 05:12:51;;;;;;;20.37;17.13;;;;;;;1.59;74.46;98748.64;125573;1126;22785;-77
2021/01/25 05:15:28;;;;;;;19.62;17.52;;;;;;;1.59;75.25;98757.26;125473;1124;22470;-77
2021/01/25 05:18:01;;;;;;;20.40;17.77;;;;;;;1.61;74.76;98755.34;125512;1126;22437;-77
2021/01/25 05:20:31;;;;;;;20.43;17.02;;;;;;;1.62;74.50;98762.16;125589;1125;22418;-76
2021/01/25 05:23:11;;;;;;;21.45;18.15;;;;;;;1.61;74.56;98762.33;125610;1124;22467;-77
2021/01/25 05:25:40;;;;;;;25.10;19.73;;;;;;;1.59;74.77;98767.67;125475;1128;22522;-77
2021/01/25 05:28:19;;;;;;;24.32;19.70;;;;;;;1.63;75.27;98769.03;125593;1124;23205;-76
2021/01/25 05:30:47;;;;;;;26.20;20.52;;;;;;;1.67;74.43;98776.52;125451;1128;22420;-76
2021/01/25 05:33:27;;;;;;;25.08;20.57;;;;;;;1.68;74.42;98771.17;125460;1126;22443;-76
2021/01/25 05:35:56;;;;;;;24.63;20.32;;;;;;;1.65;74.92;98767.08;125626;1125;22428;-76
2021/01/25 05:38:25;;;;;;;25.52;20.85;;;;;;;1.69;75.17;98766.78;125449;1127;22798;-76
2021/01/25 05:40:56;;;;;;;26.93;21.62;;;;;;;1.69;74.29;98767.59;125395;1124;22447;-76
2021/01/25 05:43:32;;;;;;;23.62;20.02;;;;;;;1.69;74.25;98775.41;125508;1127;22506;-75
2021/01/25 05:46:14;;;;;;;27.70;21.52;;;;;;;1.68;74.36;98778.98;125467;1125;22521;-76
2021/01/25 05:48:43;;;;;;;28.32;21.17;;;;;;;1.70;74.29;98778.82;125423;1129;22442;-76
2021/01/25 05:51:15;;;;;;;27.52;23.02;;;;;;;1.70;74.29;98778.82;125570;1126;22441;-76
2021/01/25 05:53:47;;;;;;;25.40;21.73;;;;;;;1.69;74.60;98783.21;125504;1127;22462;-75
2021/01/25 05:56:17;;;;;;;26.73;22.00;;;;;;;1.71;74.88;98777.88;125404;1126;22447;-75
2021/01/25 05:58:45;;;;;;;26.60;22.07;;;;;;;1.68;75.24;98776.38;125633;1124;22487;-74
2021/01/25 06:01:15;;;;;;;27.90;22.87;;;;;;;1.71;74.98;98780.48;125438;1124;22444;-77
2021/01/25 06:03:43;;;;;;;25.92;21.80;;;;;;;1.72;75.03;98782.91;125548;1124;22422;-75
2021/01/25 06:06:18;;;;;;;25.80;22.50;;;;;;;1.73;74.71;98789.75;125552;1125;22428;-76
2021/01/25 06:08:50;;;;;;;25.80;21.62;;;;;;;1.72;74.80;98793.33;125486;1126;22441;-76
2021/01/25 06:11:27;;;;;;;26.65;22.75;;;;;;;1.71;75.05;98785.68;125646;1126;22465;-77
2021/01/25 06:14:01;;;;;;;28.77;24.05;;;;;;;1.74;74.69;98786.20;125578;1126;22425;-76
2021/01/25 06:16:34;;;;;;;30.43;27.07;;;;;;;1.75;74.82;98792.22;125524;1126;22440;-75
2021/01/25 06:19:08;;;;;;;29.67;25.95;;;;;;;1.76;75.08;98797.27;125431;1124;24563;-77
2021/01/25 06:21:40;;;;;;;36.75;27.60;;;;;;;1.77;74.92;98800.71;125456;1126;22446;-76
2021/01/25 06:24:11;;;;;;;34.67;29.60;;;;;;;1.73;74.25;98799.34;125577;1124;23205;-75
2021/01/25 06:26:40;;;;;;;35.10;27.45;;;;;;;1.73;74.29;98804.55;125665;1124;22612;-76
2021/01/25 06:29:09;;;;;;;39.98;29.67;;;;;;;1.72;74.53;98803.74;125574;1124;24291;-76
2021/01/25 06:31:40;;;;;;;48.90;34.73;;;;;;;1.71;74.81;98801.30;125343;1124;22489;-76
2021/01/25 06:34:13;;;;;;;41.92;30.62;;;;;;;1.70;74.62;98803.09;125544;1124;22883;-75
2021/01/25 06:36:42;;;;;;;;;;;;;;;1.69;74.97;98813.64;125562;1125;22514;-75
2021/01/25 06:39:11;;;;;;;39.73;31.48;;;;;;;1.61;74.45;98812.59;125535;1125;21403;-75
2021/01/25 06:41:42;;;;;;;38.60;30.55;;;;;;;1.62;75.17;98823.83;125417;1126;22429;-77
2021/01/25 06:44:11;;;;;;;48.33;35.55;;;;;;;1.62;74.47;98819.43;125415;1124;24357;-75
2021/01/25 06:46:41;;;;;;;47.35;35.55;;;;;;;1.61;74.84;98817.80;125555;1124;22440;-76
2021/01/25 06:49:10;;;;;;;47.58;33.38;;;;;;;1.62;75.16;98814.23;125484;1129;22429;-76
2021/01/25 06:51:45;;;;;;;44.80;34.48;;;;;;;1.63;75.07;98805.47;125409;1124;24562;-75
2021/01/25 06:54:15;;;;;;;48.65;35.17;;;;;;;1.64;75.17;98806.28;125428;1126;22433;-75
2021/01/25 06:56:59;;;;;;;40.28;31.93;;;;;;;1.63;75.24;98808.08;125465;1124;25032;-75
2021/01/25 06:59:32;;;;;;;43.38;34.05;;;;;;;1.61;75.00;98804.79;125451;1124;25032;-76
2021/01/25 07:02:11;;;;;;;48.23;37.55;;;;;;;1.61;74.84;98811.78;125561;1124;22424;-76
2021/01/25 07:04:50;;;;;;;52.43;37.00;;;;;;;1.57;75.25;98819.07;125459;1126;22433;-76
2021/01/25 07:07:26;;;;;;;40.75;31.00;;;;;;;1.54;74.48;98821.16;125432;1128;23256;-76
2021/01/25 07:09:57;;;;;;;43.92;32.17;;;;;;;1.49;74.62;98820.77;125425;1124;24620;-76
2021/01/25 07:12:26;;;;;;;52.00;38.92;;;;;;;1.49;75.40;98829.38;125483;1126;22462;-76
2021/01/25 07:14:54;;;;;;;43.13;33.50;;;;;;;1.47;75.46;98826.13;125631;1125;22420;-75
2021/01/25 07:17:24;;;;;;;46.30;32.83;;;;;;;1.47;75.65;98830.52;125452;1127;22653;-75
2021/01/25 07:19:52;;;;;;;47.50;37.10;;;;;;;1.47;75.44;98830.52;125560;1125;22425;-75
2021/01/25 07:22:22;;;;;;;43.98;36.00;;;;;;;1.46;75.37;98840.08;125536;1124;22499;-75
2021/01/25 07:24:50;;;;;;;37.08;29.63;;;;;;;1.47;75.52;98835.73;125665;1125;22417;-76
2021/01/25 07:27:18;;;;;;;40.98;32.93;;;;;;;1.43;74.76;98836.96;125556;1124;22435;-75
2021/01/25 07:29:46;;;;;;;44.30;32.58;;;;;;;1.43;75.61;98832.57;125446;1126;22888;-75
2021/01/25 07:32:14;;;;;;;39.80;33.55;;;;;;;1.45;75.14;98837.64;125535;1124;22475;-76
2021/01/25 07:34:43;;;;;;;47.70;36.98;;;;;;;1.47;75.51;98846.13;125595;1126;24068;-75
2021/01/25 07:37:12;;;;;;;41.23;33.75;;;;;;;1.51;74.93;98843.08;125559;1124;22432;-75
2021/01/25 07:39:44;;;;;;;38.13;30.72;;;;;;;1.52;75.05;98843.89;125636;1124;25037;-75
2021/01/25 07:42:12;;;;;;;41.13;32.50;;;;;;;1.53;75.86;98845.52;125538;1126;23197;-76
2021/01/25 07:44:49;;;;;;;44.00;34.92;;;;;;;1.52;75.78;98844.70;125539;1127;22525;-75
2021/01/25 07:47:21;;;;;;;44.67;33.48;;;;;;;1.54;75.82;98841.97;125421;1124;22487;-76
2021/01/25 07:49:49;;;;;;;38.85;30.68;;;;;;;1.55;75.10;98844.42;125457;1127;22424;-77
2021/01/25 07:52:18;;;;;;;36.20;25.32;;;;;;;1.65;76.15;98849.56;125442;1126;22440;-78
2021/01/25 07:54:47;;;;;;;27.03;19.73;;;;;;;1.76;75.41;98853.73;125481;1124;22423;-78
2021/01/25 07:57:23;;;;;;;27.85;22.35;;;;;;;1.83;75.82;98847.80;125485;1126;22428;-77
2021/01/25 07:59:57;;;;;;;26.90;22.85;;;;;;;1.87;75.29;98846.53;125694;1126;22485;-77
2021/01/25 08:02:26;;;;;;;35.43;29.97;;;;;;;1.91;74.79;98854.86;125453;1126;22493;-76
2021/01/25 08:05:00;;;;;;;32.28;25.65;;;;;;;1.95;74.72;98850.98;125451;1124;24280;-75
2021/01/25 08:07:28;;;;;;;31.80;27.62;;;;;;;1.99;74.86;98851.50;125606;1124;22429;-75
2021/01/25 08:09:57;;;;;;;35.13;31.35;;;;;;;2.05;75.19;98862.14;125419;1124;24345;-75
2021/01/25 08:12:25;;;;;;;30.25;27.20;;;;;;;2.07;74.07;98854.19;125580;1127;22460;-75
2021/01/25 08:15:00;;;;;;;29.02;24.52;;;;;;;2.07;73.77;98851.59;125440;1126;22443;-75
2021/01/25 08:17:45;;;;;;;27.10;24.40;;;;;;;2.04;74.16;98849.28;125496;1126;22439;-75
2021/01/25 08:20:19;;;;;;;26.50;20.12;;;;;;;2.04;73.95;98859.70;125469;1124;22431;-75
2021/01/25 08:23:07;;;;;;;22.75;19.65;;;;;;;2.05;74.05;98856.92;125671;1124;22421;-76
2021/01/25 08:25:36;;;;;;;23.55;19.02;;;;;;;2.04;73.45;98873.53;125642;1124;22700;-76
2021/01/25 08:28:14;;;;;;;22.35;19.02;;;;;;;2.05;73.23;98874.34;125599;1124;25097;-76
2021/01/25 08:30:48;;;;;;;24.70;19.42;;;;;;;2.06;73.57;98879.39;125590;1126;22422;-73
2021/01/25 08:33:34;;;;;;;24.02;20.25;;;;;;;2.06;73.80;98886.39;125522;1124;22525;-73
2021/01/25 08:36:37;;;;;;;24.52;20.92;;;;;;;2.06;73.43;98886.39;125433;1124;24546;-74
2021/01/25 08:39:15;;;;;;;27.98;22.22;;;;;;;2.07;73.19;98888.05;125616;1125;23367;-73
2021/01/25 08:41:55;;;;;;;27.25;22.52;;;;;;;2.04;73.41;98891.77;125597;1124;22441;-73
2021/01/25 08:44:24;;;;;;;31.87;28.35;;;;;;;2.05;72.80;98893.39;125516;1124;22437;-73
2021/01/25 08:46:53;;;;;;;32.60;25.10;;;;;;;2.07;72.70;98895.87;125415;1127;22432;-73
2021/01/25 08:49:33;;;;;;;35.33;26.82;;;;;;;2.09;73.55;98897.33;125395;1126;22525;-73
2021/01/25 08:52:41;;;;;;;33.42;26.93;;;;;;;2.08;73.51;98903.52;125644;1127;22816;-73
2021/01/25 08:55:48;;;;;;;37.73;29.63;;;;;;;2.08;73.69;98906.13;125468;1128;22514;-73
2021/01/25 08:58:30;;;;;;;32.78;26.00;;;;;;;2.09;73.00;98910.36;124588;1132;23179;-73
2021/01/25 09:00:58;;;;;;;;;;;;;;;2.07;73.15;98906.28;124582;1133;23357;-73
2021/01/25 09:03:27;;;;;;;36.23;27.98;;;;;;;2.04;73.72;98906.58;124674;1136;21486;-73
2021/01/25 09:05:55;;;;;;;34.33;26.45;;;;;;;2.07;73.33;98920.13;124546;1132;22565;-73
2021/01/25 09:08:27;;;;;;;34.83;28.35;;;;;;;2.11;73.08;98918.04;124576;1132;22476;-73
2021/01/25 09:10:57;;;;;;;27.20;24.02;;;;;;;2.16;73.77;98922.80;124587;1133;22500;-73
2021/01/25 09:13:25;;;;;;;30.32;24.40;;;;;;;2.18;73.63;98926.89;124569;1133;24447;-73
2021/01/25 09:15:57;;;;;;;31.35;26.65;;;;;;;2.17;73.19;98933.08;124562;1133;22535;-73
2021/01/25 09:18:25;;;;;;;35.98;29.23;;;;;;;2.20;72.79;98932.78;124662;1133;22483;-74
2021/01/25 09:20:54;;;;;;;40.13;32.43;;;;;;;2.26;72.92;98939.17;124603;1131;24729;-73
2021/01/25 09:23:21;;;;;;;43.78;33.48;;;;;;;2.29;73.44;98937.08;124576;1132;24594;-74
2021/01/25 09:25:50;;;;;;;40.50;32.67;;;;;;;2.33;72.70;98937.59;124548;1133;22480;-74
2021/01/25 09:28:18;;;;;;;41.83;31.68;;;;;;;2.36;72.91;98935.51;124599;1132;22482;-73
2021/01/25 09:30:46;;;;;;;43.55;32.63;;;;;;;2.40;73.45;98943.88;125389;1124;24364;-73
2021/01/25 09:33:14;;;;;;;41.98;33.00;;;;;;;2.43;72.58;98942.73;125557;1124;22426;-73
2021/01/25 09:35:43;;;;;;;45.90;35.25;;;;;;;2.44;72.90;98947.00;125586;1124;22421;-73
2021/01/25 09:38:11;;;;;;;53.55;40.48;;;;;;;2.48;73.09;98941.32;125491;1126;22617;-73
2021/01/25 09:40:39;;;;;;;55.40;41.08;;;;;;;2.52;73.03;98939.23;125492;1124;24546;-74
2021/01/25 09:43:07;;;;;;;50.38;38.80;;;;;;;2.54;72.68;98945.94;125586;1124;22454;-74
2021/01/25 09:45:35;;;;;;;50.35;40.05;;;;;;;2.56;72.85;98945.77;125436;1126;22441;-74
2021/01/25 09:48:04;;;;;;;54.67;42.83;;;;;;;2.54;72.31;98939.91;125544;1124;22479;-74
2021/01/25 09:50:35;;;;;;;56.37;44.15;;;;;;;2.51;72.29;98937.61;125600;1124;22535;-74
2021/01/25 09:53:04;;;;;;;51.15;40.35;;;;;;;2.49;72.28;98940.34;125459;1127;22507;-74
2021/01/25 09:55:32;;;;;;;48.35;38.98;;;;;;;2.56;72.57;98943.98;125585;1126;22577;-74
2021/01/25 09:58:02;;;;;;;47.98;37.23;;;;;;;2.61;72.98;98946.16;125530;1124;24367;-74
2021/01/25 10:00:30;;;;;;;45.90;37.08;;;;;;;2.64;72.54;98953.67;125548;1124;22440;-74
2021/01/25 10:02:58;;;;;;;44.18;34.38;;;;;;;2.66;72.56;98951.72;125628;1124;22455;-74
2021/01/25 10:05:26;;;;;;;43.20;33.02;;;;;;;2.67;73.00;98950.77;125575;1124;24546;-74
2021/01/25 10:07:54;;;;;;;42.48;34.23;;;;;;;2.65;72.62;98949.27;125400;1126;22884;-73
2021/01/25 10:10:25;;;;;;;37.88;29.60;;;;;;;2.62;72.61;98958.21;125538;1127;22613;-73
2021/01/25 10:12:53;;;;;;;32.95;27.67;;;;;;;2.60;72.83;98960.17;125560;1126;22434;-73
2021/01/25 10:15:22;;;;;;;32.15;26.60;;;;;;;2.57;72.63;98961.28;125560;1124;24537;-74
2021/01/25 10:17:52;;;;;;;30.55;23.62;;;;;;;2.54;72.52;98960.77;125513;1124;22434;-74
2021/01/25 10:20:20;;;;;;;28.47;23.80;;;;;;;2.50;72.44;98959.41;125378;1126;22517;-73
2021/01/25 10:22:48;;;;;;;30.90;25.55;;;;;;;2.45;71.97;98957.26;125568;1124;24613;-73
2021/01/25 10:25:18;;;;;;;32.90;24.27;;;;;;;2.42;71.84;98957.55;125505;1124;22428;-75
2021/01/25 10:27:47;;;;;;;33.60;26.12;;;;;;;2.42;72.64;98954.95;125526;1124;22438;-73
2021/01/25 10:30:17;;;;;;;34.55;26.50;;;;;;;2.45;72.82;98951.23;125451;1126;22438;-76
2021/01/25 10:32:46;;;;;;;36.98;30.37;;;;;;;2.48;73.06;98951.75;125411;1127;22443;-74
2021/01/25 10:35:14;;;;;;;33.78;26.65;;;;;;;2.54;72.55;98947.73;125399;1127;22431;-74
2021/01/25 10:37:43;;;;;;;31.82;25.60;;;;;;;2.55;72.03;98947.56;125593;1124;24600;-74
2021/01/25 10:40:14;;;;;;;28.17;25.05;;;;;;;2.56;72.82;98946.59;125535;1125;22423;-75
2021/01/25 10:42:43;;;;;;;;;;;;;;;2.55;71.70;98946.75;125628;1125;22525;-74
2021/01/25 10:45:12;;;;;;;34.23;25.80;;;;;;;2.47;72.44;98957.13;125493;1124;22998;-74
2021/01/25 10:47:41;;;;;;;35.70;27.20;;;;;;;2.47;72.22;98952.73;125603;1124;22423;-73
2021/01/25 10:50:11;;;;;;;30.80;24.90;;;;;;;2.51;72.29;98942.81;125703;1125;22423;-74
2021/01/25 10:52:44;;;;;;;30.90;25.20;;;;;;;2.58;72.67;98938.63;125404;1124;22424;-73
2021/01/25 10:55:13;;;;;;;33.00;27.67;;;;;;;2.63;72.68;98946.80;125562;1124;22529;-73
2021/01/25 10:57:42;;;;;;;36.68;27.37;;;;;;;2.66;72.55;98951.72;125628;1124;22440;-73
2021/01/25 11:00:19;;;;;;;34.23;27.10;;;;;;;2.62;72.39;98950.39;125568;1126;22532;-73
2021/01/25 11:02:48;;;;;;;34.00;27.32;;;;;;;2.57;71.48;98950.04;125399;1126;22428;-75
2021/01/25 11:05:22;;;;;;;35.25;28.23;;;;;;;2.58;71.54;98947.27;125520;1125;22456;-73
2021/01/25 11:07:50;;;;;;;38.30;31.23;;;;;;;2.62;72.55;98950.39;125640;1126;22409;-74
2021/01/25 11:10:25;;;;;;;41.05;32.73;;;;;;;2.67;72.15;98944.73;125629;1124;22424;-73
2021/01/25 11:12:54;;;;;;;38.88;31.73;;;;;;;2.63;72.14;98952.02;125618;1127;22528;-73
2021/01/25 11:15:23;;;;;;;34.95;27.60;;;;;;;2.62;71.50;98950.39;125615;1124;24566;-74
2021/01/25 11:17:51;;;;;;;30.77;25.60;;;;;;;2.62;71.46;98950.39;125452;1126;22422;-73
2021/01/25 11:20:21;;;;;;;29.42;24.63;;;;;;;2.60;71.52;98952.34;125419;1129;22423;-74
2021/01/25 11:22:49;;;;;;;27.87;23.73;;;;;;;2.59;72.03;98954.11;125540;1124;22424;-73
2021/01/25 11:25:17;;;;;;;31.60;23.10;;;;;;;2.61;71.60;98956.58;125432;1126;22492;-73
2021/01/25 11:27:45;;;;;;;27.07;23.12;;;;;;;2.64;71.29;98951.07;125494;1126;22525;-73
2021/01/25 11:30:14;;;;;;;31.05;25.08;;;;;;;2.68;71.32;98957.61;125608;1124;22406;-76
2021/01/25 11:32:42;;;;;;;27.95;24.65;;;;;;;2.74;72.13;98950.98;125677;1124;24361;-80